Terminal Aerodrome Forecast
Issued by NWS

Home | Current Version | Previous Version | Text Only | Print | Product List | Glossary On
Versions: 1 2 3 4 5 6 7 8 9 10 11 12 13 14 15 16 17 18 19 20 21 22
000
FTUS41 KBGM 121929 AAA
TAFITH
TAF AMD
KITH 121929Z 1219/1318 29015G20KT P6SM -SHSN OVC020
     FM130000 29015G25KT 5SM -SHSN OVC015
     FM131200 30020G30KT 2SM -SN BLSN OVC015=

USA.gov is the U.S. government's official web portal to all federal, state and local government web resources and services.